createdAt,value
2018-11-20T00:00:12.612Z,12.50
2018-11-20T00:04:48.174Z,13.30
2018-11-20T00:07:25.523Z,14.60
2018-11-20T00:11:01.872Z,15.90
2018-11-20T00:13:40.284Z,13.37
2018-11-20T00:16:12.693Z,13.33
2018-11-20T00:18:46.280Z,14.47
2018-11-20T00:21:26.735Z,15.93
2018-11-20T00:24:00.191Z,14.70
2018-11-20T00:26:34.054Z,17.10
2018-11-20T00:29:07.903Z,18.07
2018-11-20T00:31:50.278Z,18.00
2018-11-20T00:34:27.702Z,17.83
2018-11-20T00:37:00.137Z,17.53
2018-11-20T00:39:33.650Z,17.63
2018-11-20T00:42:10.137Z,17.00
2018-11-20T00:46:45.461Z,18.37
2018-11-20T00:50:23.277Z,17.93
2018-11-20T00:52:56.641Z,18.33
2018-11-20T00:55:41.293Z,17.90
2018-11-20T00:58:13.703Z,17.13
2018-11-20T01:00:46.976Z,18.33
2018-11-20T01:03:21.614Z,19.70
2018-11-20T01:05:56.887Z,20.73
2018-11-20T01:08:29.303Z,16.50
2018-11-20T01:13:04.666Z,19.03
2018-11-20T01:15:39.999Z,18.93
2018-11-20T01:18:15.140Z,18.87
2018-11-20T01:20:48.620Z,19.63
2018-11-20T01:23:21.975Z,18.13
2018-11-20T01:25:56.232Z,18.87
2018-11-20T01:28:31.535Z,20.07
2018-11-20T01:31:05.124Z,20.63
2018-11-20T01:33:38.726Z,19.03
2018-11-20T01:36:15.039Z,19.00
2018-11-20T01:38:51.312Z,20.73
2018-11-20T01:41:24.956Z,20.13
2018-11-20T01:43:58.185Z,19.67
2018-11-20T01:46:46.479Z,20.57
2018-11-20T01:49:18.892Z,21.40
2018-11-20T01:51:51.491Z,21.10
2018-11-20T01:54:26.951Z,22.57
2018-11-20T01:57:02.337Z,21.10
2018-11-20T01:59:35.754Z,20.23
2018-11-20T02:02:25.023Z,21.60
2018-11-20T02:04:58.411Z,21.90
2018-11-20T02:07:31.753Z,20.53
2018-11-20T02:10:37.135Z,21.17
2018-11-20T02:13:23.708Z,24.60
2018-11-20T02:15:56.124Z,21.63
2018-11-20T02:18:29.742Z,21.10
2018-11-20T02:21:03.330Z,21.90
2018-11-20T02:23:38.816Z,21.40
2018-11-20T02:28:13.104Z,20.53
2018-11-20T02:30:46.405Z,22.17
2018-11-20T02:33:19.824Z,21.57
2018-11-20T02:36:03.243Z,21.90
2018-11-20T02:42:51.386Z,19.70
2018-11-20T02:45:24.876Z,21.20
2018-11-20T02:50:01.240Z,23.93
2018-11-20T02:52:35.403Z,25.13
2018-11-20T02:55:10.802Z,22.73
2018-11-20T02:57:46.204Z,23.17
2018-11-20T03:00:19.690Z,21.43
2018-11-20T03:03:28.123Z,22.40
2018-11-20T03:06:07.437Z,21.03
2018-11-20T03:10:43.927Z,23.43
2018-11-20T03:13:17.635Z,22.87
2018-11-20T03:17:51.952Z,22.53
2018-11-20T03:20:24.347Z,23.60
2018-11-20T03:24:59.876Z,22.83
2018-11-20T03:29:40.206Z,22.90
2018-11-20T03:34:20.622Z,21.53
2018-11-20T03:36:54.903Z,21.33
2018-11-20T03:39:27.320Z,20.63
2018-11-20T03:42:12.688Z,23.47
2018-11-20T03:44:48.990Z,22.60
2018-11-20T03:47:21.420Z,24.13
2018-11-20T03:50:03.815Z,19.23
2018-11-20T03:52:38.273Z,19.80
2018-11-20T03:55:11.922Z,21.20
2018-11-20T03:57:50.200Z,22.47
2018-11-20T04:00:24.715Z,22.77
2018-11-20T04:03:02.987Z,20.40
2018-11-20T04:07:41.672Z,20.53
2018-11-20T04:10:16.178Z,20.20
2018-11-20T04:12:50.529Z,20.60
2018-11-20T04:15:31.535Z,21.97
2018-11-20T04:18:06.831Z,23.23
2018-11-20T04:20:41.303Z,21.63
2018-11-20T04:23:33.724Z,21.27
2018-11-20T04:26:07.712Z,22.53
2018-11-20T04:28:41.150Z,21.53
2018-11-20T04:31:26.009Z,20.60
2018-11-20T04:36:05.363Z,22.53
2018-11-20T04:38:39.572Z,22.53
2018-11-20T04:41:21.873Z,20.23
2018-11-20T04:44:22.152Z,20.83
2018-11-20T04:46:59.478Z,21.80
2018-11-20T04:49:33.042Z,21.53
2018-11-20T04:52:37.458Z,22.50
2018-11-20T04:55:11.060Z,20.43
2018-11-20T04:58:15.464Z,20.90
2018-11-20T05:00:54.820Z,20.80
2018-11-20T05:03:28.296Z,23.47
2018-11-20T05:07:09.302Z,24.23
2018-11-20T05:09:48.654Z,20.67
2018-11-20T05:12:49.058Z,20.73
2018-11-20T05:15:52.427Z,23.33
2018-11-20T05:18:35.794Z,22.93
2018-11-20T05:21:13.129Z,23.23
2018-11-20T05:23:49.545Z,27.30
2018-11-20T05:26:22.889Z,22.37
2018-11-20T05:28:56.504Z,22.93
2018-11-20T05:35:44.881Z,24.80
2018-11-20T05:40:22.152Z,36.60
2018-11-20T05:43:00.417Z,38.30
2018-11-20T05:45:33.983Z,35.73
2018-11-20T05:49:05.144Z,27.67
2018-11-20T05:55:54.398Z,30.10
2018-11-20T05:58:43.704Z,24.87
2018-11-20T06:01:17.198Z,23.43
2018-11-20T06:03:59.294Z,24.77
2018-11-20T06:06:32.840Z,29.77
2018-11-20T06:09:07.695Z,22.07
2018-11-20T06:11:44.017Z,22.63
2018-11-20T06:16:24.562Z,25.80
2018-11-20T06:19:18.679Z,22.87
2018-11-20T06:23:59.176Z,21.97
2018-11-20T06:26:32.716Z,24.00
2018-11-20T06:31:08.567Z,25.70
2018-11-20T06:34:46.921Z,27.33
2018-11-20T06:37:22.239Z,25.83
2018-11-20T06:40:01.623Z,24.13
2018-11-20T06:42:35.158Z,22.93
2018-11-20T06:47:09.742Z,26.43
2018-11-20T06:49:46.587Z,24.70
2018-11-20T06:52:24.779Z,24.27
2018-11-20T06:56:01.833Z,27.80
2018-11-20T07:00:38.269Z,25.17
2018-11-20T07:03:12.678Z,24.37
2018-11-20T07:05:45.321Z,25.07
2018-11-20T07:08:19.413Z,30.00
2018-11-20T07:10:52.912Z,24.30
2018-11-20T07:13:29.524Z,23.80
2018-11-20T07:16:16.722Z,28.20
2018-11-20T07:18:50.246Z,22.23
2018-11-20T07:22:26.611Z,26.20
2018-11-20T07:25:03.665Z,25.63
2018-11-20T07:27:37.275Z,28.30
2018-11-20T07:32:12.723Z,26.47
2018-11-20T07:36:48.294Z,24.23
2018-11-20T07:41:25.334Z,24.20
2018-11-20T07:43:57.903Z,23.43
2018-11-20T07:46:31.503Z,24.90
2018-11-20T07:49:36.019Z,25.27
2018-11-20T07:52:09.690Z,22.20
2018-11-20T07:56:47.970Z,22.80
2018-11-20T07:59:21.560Z,24.97
2018-11-20T08:01:56.008Z,25.07
2018-11-20T08:04:29.620Z,26.70
2018-11-20T08:07:02.936Z,26.63
2018-11-20T08:09:36.425Z,25.80
2018-11-20T08:12:12.080Z,23.47
2018-11-20T08:14:45.648Z,23.80
2018-11-20T08:17:18.893Z,28.70
2018-11-20T08:19:52.359Z,21.10
2018-11-20T08:22:25.841Z,27.17
2018-11-20T08:27:00.245Z,24.17
2018-11-20T08:29:33.735Z,25.60
2018-11-20T08:32:07.299Z,25.00
2018-11-20T08:34:44.616Z,25.10
2018-11-20T08:37:18.182Z,35.57
2018-11-20T08:39:51.647Z,25.13
2018-11-20T08:44:28.839Z,26.53
2018-11-20T08:47:04.366Z,25.10
2018-11-20T08:49:37.901Z,25.43
2018-11-20T08:52:11.464Z,24.37
2018-11-20T08:54:44.906Z,25.70
2018-11-20T08:57:18.450Z,23.97
2018-11-20T08:59:52.116Z,26.10
2018-11-20T09:02:25.957Z,23.93
2018-11-20T09:05:19.336Z,23.63
2018-11-20T09:08:59.773Z,23.67
2018-11-20T09:12:35.224Z,25.30
2018-11-20T09:15:10.559Z,23.47
2018-11-20T09:17:49.958Z,23.87
2018-11-20T09:20:26.451Z,25.60
2018-11-20T09:22:59.690Z,24.37
2018-11-20T09:25:33.028Z,23.87
2018-11-20T09:30:11.352Z,26.77
2018-11-20T09:32:43.762Z,23.80
2018-11-20T09:36:25.142Z,25.37
2018-11-20T09:38:59.355Z,27.07
2018-11-20T09:41:33.735Z,24.07
2018-11-20T09:44:45.687Z,22.97
2018-11-20T09:49:24.974Z,23.53
2018-11-20T09:51:58.574Z,24.87
2018-11-20T09:56:33.914Z,24.80
2018-11-20T09:59:07.536Z,25.37
2018-11-20T10:01:41.711Z,25.23
2018-11-20T10:04:48.196Z,26.67
2018-11-20T10:08:24.632Z,24.97
2018-11-20T10:10:58.940Z,24.97
2018-11-20T10:13:31.341Z,25.63
2018-11-20T10:16:04.714Z,27.07
2018-11-20T10:18:38.296Z,26.83
2018-11-20T10:21:13.069Z,25.90
2018-11-20T10:23:46.488Z,25.47
2018-11-20T10:26:23.184Z,26.57
2018-11-20T10:28:57.087Z,22.80
2018-11-20T10:31:33.179Z,23.60
2018-11-20T10:36:12.555Z,23.80
2018-11-20T10:38:48.336Z,25.13
2018-11-20T10:41:38.231Z,23.93
2018-11-20T10:49:02.716Z,25.87
2018-11-20T10:51:39.270Z,25.00
2018-11-20T10:54:17.852Z,23.27
2018-11-20T10:56:56.110Z,27.03
2018-11-20T10:59:29.618Z,25.57
2018-11-20T11:02:03.272Z,23.47
2018-11-20T11:04:37.903Z,24.90
2018-11-20T11:09:13.238Z,24.83
2018-11-20T11:11:57.309Z,26.40
2018-11-20T11:14:31.385Z,22.97
2018-11-20T11:21:21.596Z,23.77
2018-11-20T11:23:55.040Z,21.03
2018-11-20T11:26:31.482Z,26.87
2018-11-20T11:29:04.971Z,27.33
2018-11-20T11:31:38.286Z,23.50
2018-11-20T11:36:12.742Z,25.03
2018-11-20T11:38:49.119Z,25.20
2018-11-20T11:41:23.144Z,26.70
2018-11-20T11:43:58.477Z,24.27
2018-11-20T11:48:37.801Z,23.40
2018-11-20T11:51:16.215Z,24.83
2018-11-20T11:55:52.656Z,25.37
2018-11-20T11:58:26.421Z,24.87
2018-11-20T20:41:46.256Z,27.00
2018-11-20T20:45:30.351Z,34.83
2018-11-20T21:00:18.958Z,22.83
2018-11-20T21:44:21.898Z,21.20
2018-11-20T21:46:59.230Z,21.57
2018-11-20T21:49:45.160Z,21.40
2018-11-20T21:52:30.791Z,21.60
2018-11-20T21:55:23.740Z,19.83
2018-11-20T21:58:12.689Z,19.67
2018-11-20T22:01:08.286Z,20.33
2018-11-20T22:03:54.453Z,19.27
2018-11-20T22:06:40.880Z,19.33
2018-11-20T22:09:31.436Z,20.30
2018-11-20T22:12:09.915Z,20.67
2018-11-20T22:14:55.723Z,19.03
2018-11-20T22:17:41.691Z,22.30
2018-11-20T22:20:27.653Z,17.80
2018-11-20T22:23:17.752Z,19.00
2018-11-20T22:26:07.678Z,17.77
2018-11-20T22:29:12.977Z,20.10
2018-11-20T22:31:58.519Z,18.97
2018-11-20T22:35:01.065Z,20.60
2018-11-20T22:37:44.166Z,19.87
2018-11-20T22:40:28.949Z,18.93
2018-11-20T22:43:17.194Z,18.93
2018-11-20T22:46:05.419Z,19.93
2018-11-20T22:48:52.823Z,20.37
2018-11-20T22:51:47.048Z,18.83
2018-11-20T22:54:40.166Z,18.70
2018-11-20T22:57:30.710Z,20.43
2018-11-20T23:00:11.152Z,20.80
2018-11-20T23:02:56.031Z,20.20
2018-11-20T23:05:40.944Z,19.53
2018-11-20T23:08:09.109Z,19.60
2018-11-20T23:10:37.335Z,20.77
2018-11-20T23:13:05.571Z,20.77
2018-11-20T23:15:33.755Z,21.27
2018-11-20T23:18:01.949Z,19.47
2018-11-20T23:20:30.179Z,20.33
2018-11-20T23:22:58.378Z,20.87
2018-11-20T23:25:27.381Z,20.33
2018-11-20T23:27:55.597Z,19.77
2018-11-20T23:30:23.826Z,20.53
2018-11-20T23:32:52.028Z,21.30
2018-11-20T23:35:20.235Z,19.93
2018-11-20T23:37:48.479Z,19.47
2018-11-20T23:40:16.683Z,23.17
2018-11-20T23:42:44.899Z,20.40
2018-11-20T23:45:14.977Z,21.70
2018-11-20T23:47:43.966Z,21.30
2018-11-20T23:50:13.383Z,21.93
2018-11-20T23:52:41.578Z,20.50
2018-11-20T23:55:12.068Z,23.80
2018-11-20T23:57:40.288Z,23.33
